createdAt,value
2022-10-06T00:02:28.345Z,101131.19
2022-10-06T00:07:30.032Z,101130.59
2022-10-06T00:12:47.178Z,101137.75
2022-10-06T00:17:49.417Z,101143.22
2022-10-06T00:22:51.462Z,101160.50
2022-10-06T00:27:53.562Z,101173.16
2022-10-06T00:32:59.233Z,101186.00
2022-10-06T00:38:01.363Z,101184.31
2022-10-06T00:43:05.796Z,101183.47
2022-10-06T00:48:18.850Z,101187.06
2022-10-06T00:53:22.101Z,101177.94
2022-10-06T00:58:24.022Z,101184.44
2022-10-06T01:03:33.601Z,101189.44
2022-10-06T01:08:36.206Z,101187.78
2022-10-06T01:13:43.396Z,101182.94
2022-10-06T01:18:47.403Z,101181.06
2022-10-06T01:23:50.097Z,101190.38
2022-10-06T01:28:52.072Z,101192.69
2022-10-06T01:33:54.970Z,101200.31
2022-10-06T01:38:57.110Z,101195.63
2022-10-06T01:43:58.990Z,101206.75
2022-10-06T01:49:02.814Z,101206.34
2022-10-06T01:54:04.536Z,101214.72
2022-10-06T01:59:06.255Z,101221.19
2022-10-06T02:04:08.091Z,101224.09
2022-10-06T02:09:10.344Z,101226.44
2022-10-06T02:14:14.391Z,101253.16
2022-10-06T02:19:16.360Z,101261.06
2022-10-06T02:24:17.942Z,101278.75
2022-10-06T02:29:22.049Z,101288.53
2022-10-06T02:34:24.856Z,101308.72
2022-10-06T02:39:28.370Z,101312.00
2022-10-06T02:44:30.124Z,101324.63
2022-10-06T02:49:32.063Z,101330.53
2022-10-06T02:54:36.724Z,101335.16
2022-10-06T02:59:38.325Z,101345.25
2022-10-06T03:04:40.376Z,101351.97
2022-10-06T03:09:42.448Z,101360.38
2022-10-06T03:14:44.093Z,101365.44
2022-10-06T03:19:45.868Z,101369.41
2022-10-06T03:24:48.562Z,101383.22
2022-10-06T03:29:51.536Z,101378.53
2022-10-06T03:34:54.689Z,101388.00
2022-10-06T03:39:56.418Z,101390.16
2022-10-06T03:44:58.815Z,101407.81
2022-10-06T03:50:00.626Z,101417.16
2022-10-06T03:55:02.336Z,101423.78
2022-10-06T04:00:04.527Z,101429.75
2022-10-06T04:05:13.976Z,101434.66
2022-10-06T04:10:16.396Z,101443.44
2022-10-06T04:15:18.115Z,101443.66
2022-10-06T04:20:19.708Z,101454.31
2022-10-06T04:25:21.347Z,101460.28
2022-10-06T04:30:22.943Z,101464.13
2022-10-06T04:35:24.756Z,101471.81
2022-10-06T04:40:26.466Z,101475.63
2022-10-06T04:45:28.150Z,101479.47
2022-10-06T04:50:30.075Z,101482.44
2022-10-06T04:55:47.051Z,101494.81
2022-10-06T05:00:49.243Z,101501.59
2022-10-06T05:05:54.000Z,101501.22
2022-10-06T05:11:03.988Z,101516.53
2022-10-06T05:16:09.021Z,101525.25
2022-10-06T05:21:19.701Z,101528.84
2022-10-06T05:26:25.252Z,101536.50
2022-10-06T05:31:31.936Z,101543.34
2022-10-06T05:36:36.286Z,101559.28
2022-10-06T05:41:39.087Z,101559.50
2022-10-06T05:46:43.420Z,101568.00
2022-10-06T05:51:45.142Z,101565.03
2022-10-06T05:56:52.253Z,101579.03
2022-10-06T06:01:54.012Z,101580.13
2022-10-06T06:07:21.708Z,101592.81
2022-10-06T06:12:28.294Z,101595.34
2022-10-06T06:17:48.647Z,101600.66
2022-10-06T06:22:53.621Z,101601.28
2022-10-06T06:27:58.434Z,101608.84
2022-10-06T06:33:00.603Z,101619.25
2022-10-06T06:38:03.142Z,101643.81
2022-10-06T06:43:05.700Z,101653.19
2022-10-06T06:48:15.796Z,101678.44
2022-10-06T06:53:18.536Z,101693.94
2022-10-06T06:58:21.873Z,101685.81
2022-10-06T07:03:52.102Z,101696.38
2022-10-06T07:08:48.890Z,101710.28
2022-10-06T07:14:03.041Z,101722.31
2022-10-06T07:19:25.090Z,101723.25
2022-10-06T07:24:46.355Z,101737.16
2022-10-06T07:29:48.170Z,101746.97
2022-10-06T07:34:51.187Z,101755.13
2022-10-06T07:39:54.604Z,101758.91
2022-10-06T07:45:15.904Z,101753.19
2022-10-06T07:50:17.596Z,101762.84
2022-10-06T07:55:19.700Z,101776.09
2022-10-06T08:00:40.878Z,101785.16
2022-10-06T08:05:42.387Z,101778.56
2022-10-06T08:10:52.851Z,101774.56
2022-10-06T08:15:56.510Z,101783.75
2022-10-06T08:20:58.997Z,101789.75
2022-10-06T08:26:00.525Z,101798.53
2022-10-06T08:31:11.656Z,101800.00
2022-10-06T08:36:19.194Z,101811.16
2022-10-06T08:41:27.962Z,101822.63
2022-10-06T08:46:35.567Z,101818.63
2022-10-06T08:52:02.163Z,101826.06
2022-10-06T08:57:23.915Z,101828.63
2022-10-06T09:02:39.246Z,101841.13
2022-10-06T09:07:58.252Z,101840.41
2022-10-06T09:13:09.005Z,101848.91
2022-10-06T09:18:56.002Z,101850.81
2022-10-06T09:23:56.961Z,101864.22
2022-10-06T09:28:58.834Z,101859.44
2022-10-06T09:34:25.053Z,101857.22
2022-10-06T09:39:36.323Z,101867.91
2022-10-06T09:44:48.161Z,101864.88
2022-10-06T09:50:20.031Z,101861.72
2022-10-06T09:55:23.251Z,101874.22
2022-10-06T10:00:36.567Z,101864.78
2022-10-06T10:05:40.300Z,101864.25
2022-10-06T10:10:41.866Z,101860.13
2022-10-06T10:16:00.386Z,101854.28
2022-10-06T10:21:10.423Z,101863.00
2022-10-06T10:26:27.141Z,101855.47
2022-10-06T10:31:57.021Z,101861.34
2022-10-06T10:37:14.164Z,101856.94
2022-10-06T10:42:42.252Z,101851.63
2022-10-06T10:47:47.169Z,101852.75
2022-10-06T10:52:52.304Z,101848.75
2022-10-06T10:58:27.672Z,101845.22
2022-10-06T11:03:29.221Z,101843.72
2022-10-06T11:08:38.415Z,101823.50
2022-10-06T11:13:54.164Z,101824.53
2022-10-06T11:19:28.806Z,101843.25
2022-10-06T11:25:03.829Z,101839.88
2022-10-06T11:30:14.925Z,101841.81
2022-10-06T11:35:23.185Z,101836.00
2022-10-06T11:40:49.454Z,101833.81
2022-10-06T11:46:13.906Z,101831.34
2022-10-06T11:51:24.707Z,101799.50
2022-10-06T11:56:38.297Z,101810.44
2022-10-06T12:01:47.681Z,101802.63
2022-10-06T12:06:57.291Z,101780.38
2022-10-06T12:12:19.140Z,101772.09
2022-10-06T12:17:27.889Z,101771.41
2022-10-06T12:22:37.113Z,101763.13
2022-10-06T12:28:02.986Z,101787.06
2022-10-06T12:33:05.781Z,101786.56
2022-10-06T12:38:35.331Z,101779.63
2022-10-06T12:44:21.803Z,101781.63
2022-10-06T12:49:34.336Z,101770.63
2022-10-06T12:54:44.300Z,101760.84
2022-10-06T12:59:47.318Z,101757.34
2022-10-06T13:04:59.449Z,101751.59
2022-10-06T13:10:18.603Z,101742.97
2022-10-06T13:15:23.348Z,101732.38
2022-10-06T13:20:34.141Z,101719.97
2022-10-06T13:25:48.451Z,101713.13
2022-10-06T13:30:53.980Z,101705.66
2022-10-06T13:35:57.592Z,101701.66
2022-10-06T13:41:24.273Z,101697.94
2022-10-06T13:46:28.804Z,101686.03
2022-10-06T13:51:33.005Z,101685.09
2022-10-06T13:56:39.887Z,101686.38
2022-10-06T14:01:46.766Z,101699.34
2022-10-06T14:07:00.460Z,101689.66
2022-10-06T14:12:20.537Z,101678.56
2022-10-06T14:17:24.685Z,101679.56
2022-10-06T14:22:34.195Z,101679.91
2022-10-06T14:27:35.756Z,101683.03
2022-10-06T14:32:38.790Z,101675.69
2022-10-06T14:37:40.430Z,101677.31
2022-10-06T14:42:42.017Z,101672.25
2022-10-06T14:47:43.884Z,101652.50
2022-10-06T14:52:45.472Z,101659.06
2022-10-06T14:57:47.189Z,101653.72
2022-10-06T15:02:48.952Z,101656.75
2022-10-06T15:08:09.140Z,101647.41
2022-10-06T15:13:10.671Z,101649.81
2022-10-06T15:18:12.328Z,101642.25
2022-10-06T15:23:13.971Z,101635.47
2022-10-06T15:28:34.157Z,101639.19
2022-10-06T15:33:36.666Z,101623.91
2022-10-06T15:38:38.237Z,101622.22
2022-10-06T15:43:55.513Z,101623.03
2022-10-06T15:49:00.994Z,101619.13
2022-10-06T15:54:03.079Z,101615.66
2022-10-06T15:59:06.188Z,101618.16
2022-10-06T16:04:39.977Z,101622.50
2022-10-06T16:09:44.411Z,101625.16
2022-10-06T16:14:46.300Z,101618.34
2022-10-06T16:19:47.949Z,101620.41
2022-10-06T16:24:49.834Z,101615.75
2022-10-06T16:29:51.412Z,101614.38
2022-10-06T16:34:53.002Z,101603.03
2022-10-06T16:39:54.595Z,101608.38
2022-10-06T16:44:56.173Z,101601.16
2022-10-06T16:49:57.700Z,101612.16
2022-10-06T16:55:01.628Z,101617.19
2022-10-06T17:00:05.804Z,101622.41
2022-10-06T17:05:07.669Z,101614.44
2022-10-06T17:10:20.259Z,101618.31
2022-10-06T17:15:22.617Z,101628.09
2022-10-06T17:20:26.817Z,101625.75
2022-10-06T17:25:28.340Z,101625.28
2022-10-06T17:30:29.909Z,101640.47
2022-10-06T17:35:31.470Z,101634.72
2022-10-06T17:40:32.989Z,101638.47
2022-10-06T17:45:38.576Z,101639.69
2022-10-06T17:50:40.175Z,101651.28
2022-10-06T17:55:44.065Z,101644.25
2022-10-06T18:00:45.717Z,101652.31
2022-10-06T18:05:54.476Z,101648.28
2022-10-06T18:11:14.459Z,101652.13
2022-10-06T18:16:20.536Z,101650.41
2022-10-06T18:21:24.853Z,101646.16
2022-10-06T18:26:26.639Z,101647.88
2022-10-06T18:31:28.343Z,101649.63
2022-10-06T18:36:30.933Z,101641.38
2022-10-06T18:41:32.505Z,101645.16
2022-10-06T18:46:53.890Z,101642.44
2022-10-06T18:51:58.303Z,101642.28
2022-10-06T18:57:00.979Z,101633.81
2022-10-06T19:02:02.893Z,101635.72
2022-10-06T19:07:05.092Z,101638.69
2022-10-06T19:12:06.637Z,101633.16
2022-10-06T19:17:13.880Z,101637.56
2022-10-06T19:22:16.194Z,101637.38
2022-10-06T19:27:24.220Z,101649.63
2022-10-06T19:32:33.810Z,101651.28
2022-10-06T19:37:35.425Z,101653.16
2022-10-06T19:42:49.066Z,101670.75
2022-10-06T19:47:51.394Z,101654.34
2022-10-06T19:52:52.938Z,101662.00
2022-10-06T19:57:54.588Z,101647.03
2022-10-06T20:02:56.451Z,101658.44
2022-10-06T20:07:58.095Z,101658.44
2022-10-06T20:12:59.756Z,101658.44
2022-10-06T20:18:02.037Z,101660.75
2022-10-06T20:23:03.617Z,101664.06
2022-10-06T20:28:08.811Z,101659.19
2022-10-06T20:33:11.279Z,101665.66
2022-10-06T20:38:15.350Z,101661.63
2022-10-06T20:43:16.987Z,101658.69
2022-10-06T20:48:18.575Z,101650.06
2022-10-06T20:53:20.142Z,101636.94
2022-10-06T20:58:21.980Z,101634.63
2022-10-06T21:03:23.665Z,101639.88
2022-10-06T21:08:25.359Z,101634.31
2022-10-06T21:13:28.668Z,101635.28
2022-10-06T21:18:33.914Z,101624.28
2022-10-06T21:23:37.535Z,101621.50
2022-10-06T21:28:39.708Z,101618.72
2022-10-06T21:33:42.812Z,101604.75
2022-10-06T21:38:47.869Z,101609.22
2022-10-06T21:44:10.158Z,101605.00
2022-10-06T21:49:14.940Z,101602.53
2022-10-06T21:54:17.188Z,101609.03
2022-10-06T21:59:22.960Z,101597.59
2022-10-06T22:04:24.652Z,101593.47
2022-10-06T22:09:29.078Z,101597.97
2022-10-06T22:14:30.754Z,101592.97
2022-10-06T22:19:32.656Z,101590.88
2022-10-06T22:24:36.702Z,101584.72
2022-10-06T22:29:38.451Z,101585.31
2022-10-06T22:34:40.112Z,101575.63
2022-10-06T22:39:41.778Z,101576.28
2022-10-06T22:44:43.451Z,101570.09
2022-10-06T22:49:45.156Z,101571.81
2022-10-06T22:54:46.820Z,101558.94
2022-10-06T22:59:48.509Z,101561.09
2022-10-06T23:04:50.187Z,101553.09
2022-10-06T23:09:51.867Z,101562.66
2022-10-06T23:14:53.545Z,101551.31
2022-10-06T23:19:55.258Z,101544.16
2022-10-06T23:24:56.992Z,101548.00
2022-10-06T23:29:58.726Z,101536.84
2022-10-06T23:35:00.385Z,101528.41
2022-10-06T23:40:02.447Z,101534.53
2022-10-06T23:45:04.654Z,101528.41
2022-10-06T23:50:06.979Z,101527.56
2022-10-06T23:55:08.811Z,101521.25
